Time;durP1;ratioP1;P1;durP2;ratioP2;P2;SDS_P1;SDS_P2;PMS_P1;PMS_P2;Temp;Humidity;BMP_temperature;BMP_pressure;BME280_temperature;BME280_humidity;BME280_pressure;Samples;Min_cycle;Max_cycle;Signal;HPM_P1;HPM_P2
2021/06/18 00:02:26;;;;;;;10.17;5.60;;;;;;;20.54;nan;96357.75;3531803;40;20566;-75
2021/06/18 00:04:55;;;;;;;11.43;5.60;;;;;;;20.52;nan;96359.75;3532050;40;20458;-74
2021/06/18 00:07:23;;;;;;;6.90;5.57;;;;;;;20.38;nan;96357.84;3533114;40;20479;-74
2021/06/18 00:09:51;;;;;;;11.43;5.90;;;;;;;20.26;nan;96354.72;3533277;40;20473;-74
2021/06/18 00:12:19;;;;;;;9.93;5.40;;;;;;;20.17;nan;96356.59;3533116;40;20492;-74
2021/06/18 00:14:47;;;;;;;14.53;5.87;;;;;;;20.06;nan;96362.28;3533686;40;20885;-74
2021/06/18 00:17:15;;;;;;;11.03;5.47;;;;;;;19.92;nan;96363.81;3523178;40;20513;-74
2021/06/18 00:19:43;;;;;;;12.47;6.00;;;;;;;;;;3531461;40;20713;-74
2021/06/18 00:22:12;;;;;;;6.73;4.60;;;;;;;19.56;nan;96386.22;3522857;40;20529;-74
2021/06/18 00:24:40;;;;;;;7.60;5.10;;;;;;;19.47;nan;96344.75;3529885;40;20631;-74
2021/06/18 00:27:08;;;;;;;10.03;5.00;;;;;;;19.23;nan;96350.03;3529646;40;20453;-74
2021/06/18 00:29:36;;;;;;;8.53;5.63;;;;;;;19.48;nan;96350.88;3531287;40;20495;-74
2021/06/18 00:32:04;;;;;;;12.43;5.50;;;;;;;19.61;nan;96351.19;3532399;40;20768;-74
2021/06/18 00:34:32;;;;;;;10.97;5.00;;;;;;;19.70;nan;96347.53;3528996;40;20849;-73
2021/06/18 00:37:00;;;;;;;13.73;5.70;;;;;;;19.78;nan;96354.69;3514950;40;20854;-74
2021/06/18 00:39:29;;;;;;;16.20;5.70;;;;;;;19.77;nan;96355.69;3530839;40;20967;-73
2021/06/18 00:41:58;;;;;;;8.30;5.13;;;;;;;19.70;nan;96354.69;3530493;40;21231;-74
2021/06/18 00:44:26;;;;;;;10.00;5.50;;;;;;;19.71;nan;96351.00;3520574;40;20575;-74
2021/06/18 00:46:54;;;;;;;10.23;5.30;;;;;;;19.75;nan;96352.38;3530247;40;20477;-74
2021/06/18 00:49:23;;;;;;;10.17;5.43;;;;;;;19.74;nan;96348.88;3530396;40;20563;-74
2021/06/18 00:51:52;;;;;;;7.30;5.50;;;;;;;19.70;nan;96349.38;3531603;40;20919;-73
2021/06/18 00:54:28;;;;;;;14.50;5.20;;;;;;;19.65;nan;96351.69;3529231;40;20920;-75
2021/06/18 00:56:59;;;;;;;9.53;5.93;;;;;;;19.55;nan;96357.19;3530481;40;20517;-74
2021/06/18 00:59:27;;;;;;;18.50;6.73;;;;;;;19.43;nan;96354.03;3531147;40;20539;-75
2021/06/18 01:01:56;;;;;;;11.63;5.93;;;;;;;19.12;nan;96351.22;3530709;40;20771;-75
2021/06/18 01:04:26;;;;;;;15.23;5.97;;;;;;;19.15;nan;96350.88;3529387;40;20743;-75
2021/06/18 01:07:00;;;;;;;8.23;6.40;;;;;;;19.09;nan;96362.13;3523594;40;20966;-76
2021/06/18 01:09:32;;;;;;;13.27;5.53;;;;;;;18.98;nan;96363.31;3523017;40;20478;-76
2021/06/18 01:12:08;;;;;;;12.83;5.03;;;;;;;18.93;nan;96370.91;3530118;40;20892;-74
2021/06/18 01:14:40;;;;;;;8.33;5.23;;;;;;;18.95;nan;96368.91;3529386;40;20914;-74
2021/06/18 01:17:15;;;;;;;7.10;5.53;;;;;;;18.78;nan;96363.56;3531838;40;20810;-76
2021/06/18 01:20:16;;;;;;;7.90;5.77;;;;;;;19.05;nan;96361.66;3529441;40;20566;-75
2021/06/18 01:22:49;;;;;;;10.00;5.90;;;;;;;19.15;nan;96358.81;3522821;40;20474;-74
2021/06/18 01:25:22;;;;;;;9.53;5.97;;;;;;;19.26;nan;96365.66;3529897;40;20868;-74
2021/06/18 01:28:00;;;;;;;8.43;5.77;;;;;;;19.32;nan;96363.16;3529815;40;20500;-76
2021/06/18 01:30:31;;;;;;;11.23;6.50;;;;;;;19.30;nan;96359.81;3527095;40;21153;-75
2021/06/18 01:33:03;;;;;;;9.17;6.43;;;;;;;19.40;nan;96361.50;3529292;40;20449;-76
2021/06/18 01:35:36;;;;;;;10.67;5.63;;;;;;;19.41;nan;96364.00;3521609;40;20773;-76
2021/06/18 01:38:09;;;;;;;7.60;5.60;;;;;;;19.38;nan;96363.50;3528107;40;20850;-74
2021/06/18 01:40:38;;;;;;;14.10;6.23;;;;;;;19.28;nan;96361.00;3529654;40;20489;-75
2021/06/18 01:43:08;;;;;;;6.70;5.17;;;;;;;19.24;nan;96359.69;3533139;40;20467;-76
2021/06/18 01:45:54;;;;;;;11.27;6.77;;;;;;;19.23;nan;96358.84;3535043;40;20477;-76
2021/06/18 01:48:25;;;;;;;10.10;6.23;;;;;;;19.06;nan;96347.38;3542231;40;20503;-74
2021/06/18 01:50:58;;;;;;;12.07;6.10;;;;;;;19.15;nan;96354.38;3531084;40;20469;-77
2021/06/18 01:53:27;;;;;;;8.67;5.30;;;;;;;19.06;nan;96344.72;3533291;40;20469;-73
2021/06/18 01:55:57;;;;;;;7.00;4.97;;;;;;;19.11;nan;96350.38;3533131;40;20536;-73
2021/06/18 01:58:29;;;;;;;9.40;5.80;;;;;;;19.03;nan;96326.47;3532528;40;20880;-74
2021/06/18 02:00:59;;;;;;;7.60;5.37;;;;;;;19.12;nan;96346.72;3529333;40;20569;-73
2021/06/18 02:03:28;;;;;;;7.53;4.80;;;;;;;19.06;nan;96330.66;3531139;40;20472;-75
2021/06/18 02:06:01;;;;;;;7.80;5.20;;;;;;;19.07;nan;96330.47;3530482;40;20478;-73
2021/06/18 02:08:29;;;;;;;7.00;5.00;;;;;;;19.15;nan;96335.78;3531202;40;20513;-73
2021/06/18 02:10:58;;;;;;;8.77;5.00;;;;;;;19.15;nan;96334.94;3532054;40;20774;-75
2021/06/18 02:13:28;;;;;;;12.10;5.37;;;;;;;19.17;nan;96333.81;3523614;40;20466;-74
2021/06/18 02:15:59;;;;;;;8.43;5.63;;;;;;;19.13;nan;96331.63;3528905;40;20555;-73
2021/06/18 02:18:31;;;;;;;8.33;4.87;;;;;;;19.07;nan;96330.47;3532599;40;20459;-73
2021/06/18 02:21:00;;;;;;;12.90;5.40;;;;;;;19.10;nan;96337.28;3529166;40;20894;-74
2021/06/18 02:23:30;;;;;;;12.40;5.30;;;;;;;18.95;nan;96360.97;3524013;40;20659;-74
2021/06/18 02:26:00;;;;;;;11.97;6.30;;;;;;;17.90;nan;96389.53;3527784;40;20469;-73
2021/06/18 02:28:28;;;;;;;13.03;6.70;;;;;;;17.71;nan;96378.13;3528232;40;20889;-73
2021/06/18 02:30:58;;;;;;;10.27;6.93;;;;;;;17.96;nan;96376.50;3532934;40;20469;-73
2021/06/18 02:33:26;;;;;;;15.10;7.20;;;;;;;17.95;nan;96372.19;3531042;40;20457;-73
2021/06/18 02:35:54;;;;;;;11.13;6.60;;;;;;;18.12;nan;96375.75;3529493;40;20484;-72
2021/06/18 02:38:22;;;;;;;12.20;6.90;;;;;;;18.10;nan;96361.00;3531728;40;20535;-72
2021/06/18 02:40:50;;;;;;;18.17;7.67;;;;;;;18.29;nan;96387.25;3530547;40;20465;-72
2021/06/18 02:43:18;;;;;;;15.07;6.73;;;;;;;18.44;nan;96390.13;3531757;40;20452;-73
2021/06/18 02:45:46;;;;;;;9.57;7.27;;;;;;;18.40;nan;96387.97;3526750;40;20554;-73
2021/06/18 02:48:18;;;;;;;18.83;7.83;;;;;;;18.48;nan;96382.69;3534983;40;20528;-73
2021/06/18 02:50:53;;;;;;;15.33;6.60;;;;;;;18.56;nan;96388.00;3532077;40;20492;-73
2021/06/18 02:53:28;;;;;;;12.33;6.73;;;;;;;18.76;nan;96378.81;3532812;40;20440;-74
2021/06/18 02:56:00;;;;;;;16.03;6.40;;;;;;;18.76;nan;96378.00;3532629;40;20456;-74
2021/06/18 02:58:33;;;;;;;13.10;6.13;;;;;;;18.81;nan;96380.19;3531258;40;20480;-73
2021/06/18 03:01:04;;;;;;;14.30;7.63;;;;;;;18.93;nan;96385.03;3531076;40;20691;-74
2021/06/18 03:03:39;;;;;;;14.50;7.23;;;;;;;18.79;nan;96385.59;3527787;40;20445;-74
2021/06/18 03:06:08;;;;;;;12.73;7.00;;;;;;;18.85;nan;96381.50;3520649;40;20497;-74
2021/06/18 03:08:41;;;;;;;9.27;6.27;;;;;;;18.89;nan;96385.50;3531612;40;20460;-74
2021/06/18 03:11:10;;;;;;;14.60;6.50;;;;;;;18.93;nan;96390.34;3532660;40;20551;-74
2021/06/18 03:13:42;;;;;;;15.97;6.63;;;;;;;18.98;nan;96391.66;3530005;40;20454;-73
2021/06/18 03:16:13;;;;;;;20.70;6.00;;;;;;;19.06;nan;96391.69;3529322;40;20457;-73
2021/06/18 03:18:46;;;;;;;8.20;5.50;;;;;;;19.06;nan;96396.97;3526858;40;20454;-74
2021/06/18 03:21:14;;;;;;;13.20;5.90;;;;;;;19.05;nan;96393.50;3529581;40;20898;-75
2021/06/18 03:23:46;;;;;;;14.60;5.40;;;;;;;19.26;nan;96394.84;3530018;40;20483;-73
2021/06/18 03:26:15;;;;;;;9.23;5.00;;;;;;;19.30;nan;96397.00;3530153;40;20481;-74
2021/06/18 03:28:44;;;;;;;7.33;5.30;;;;;;;19.38;nan;96408.63;3526515;40;20496;-73
2021/06/18 03:31:13;;;;;;;8.17;5.40;;;;;;;19.24;nan;96402.97;3526435;40;20520;-74
2021/06/18 03:33:44;;;;;;;13.67;5.37;;;;;;;19.29;nan;96400.66;3529837;40;20829;-74
2021/06/18 03:36:15;;;;;;;8.43;5.07;;;;;;;19.42;nan;96405.47;3530691;40;20446;-74
2021/06/18 03:38:44;;;;;;;11.77;5.60;;;;;;;19.50;nan;96405.50;3516340;40;20832;-74
2021/06/18 03:41:12;;;;;;;6.33;4.60;;;;;;;19.43;nan;96391.22;3529722;40;20480;-74
2021/06/18 03:43:41;;;;;;;11.17;5.30;;;;;;;19.54;nan;96408.63;3530792;40;20465;-73
2021/06/18 03:46:10;;;;;;;9.40;4.80;;;;;;;19.71;nan;96409.47;3529743;40;20870;-73
2021/06/18 03:48:41;;;;;;;8.97;4.90;;;;;;;19.85;nan;96406.13;3534638;40;20462;-74
2021/06/18 03:51:10;;;;;;;8.90;4.90;;;;;;;19.82;nan;96411.00;3529883;40;20469;-74
2021/06/18 03:53:39;;;;;;;6.80;4.60;;;;;;;19.78;nan;96405.16;3526818;40;20458;-76
2021/06/18 03:56:07;;;;;;;6.23;4.80;;;;;;;19.92;nan;96406.31;3528404;40;20445;-75
2021/06/18 03:58:37;;;;;;;8.20;4.50;;;;;;;20.07;nan;96406.44;3530391;40;20476;-75
2021/06/18 04:01:07;;;;;;;9.10;4.77;;;;;;;20.15;nan;96407.25;3528983;40;20789;-75
2021/06/18 04:03:35;;;;;;;6.60;4.27;;;;;;;20.21;nan;96411.06;3513284;40;20470;-75
2021/06/18 04:06:07;;;;;;;6.53;4.17;;;;;;;20.30;nan;96410.03;3520965;40;20792;-74
2021/06/18 04:08:37;;;;;;;7.23;3.93;;;;;;;20.30;nan;96409.22;3530214;40;20946;-75
2021/06/18 04:11:07;;;;;;;7.60;4.30;;;;;;;20.37;nan;96404.06;3522327;40;20493;-74
2021/06/18 04:13:37;;;;;;;9.47;3.23;;;;;;;20.48;nan;96403.66;3530127;40;20539;-74
2021/06/18 04:16:07;;;;;;;4.13;3.63;;;;;;;20.60;nan;96410.31;3531489;40;20455;-73
2021/06/18 04:18:38;;;;;;;6.50;4.00;;;;;;;20.72;nan;96411.59;3530374;40;20475;-75
2021/06/18 04:21:10;;;;;;;6.70;4.10;;;;;;;20.72;nan;96398.28;3522631;40;20809;-74
2021/06/18 04:23:40;;;;;;;12.53;4.13;;;;;;;20.92;nan;96411.16;3533975;40;20474;-74
2021/06/18 04:26:08;;;;;;;11.97;4.43;;;;;;;20.90;nan;96405.19;3533377;40;20834;-73
2021/06/18 04:28:37;;;;;;;8.83;3.77;;;;;;;21.00;nan;96410.28;3519913;40;20485;-74
2021/06/18 04:31:05;;;;;;;7.63;3.50;;;;;;;21.01;nan;96409.25;3530221;40;21100;-74
2021/06/18 04:33:33;;;;;;;4.97;3.80;;;;;;;21.08;nan;96404.91;3522508;40;20555;-74
2021/06/18 04:36:01;;;;;;;4.80;3.60;;;;;;;21.11;nan;96416.03;3532352;40;20761;-73
2021/06/18 04:38:29;;;;;;;7.57;4.67;;;;;;;21.13;nan;96421.19;3533546;40;20464;-73
2021/06/18 04:40:59;;;;;;;12.83;3.60;;;;;;;21.19;nan;96414.31;3532645;40;20889;-74
2021/06/18 04:43:27;;;;;;;5.93;3.50;;;;;;;21.13;nan;96419.34;3531913;40;20527;-74
2021/06/18 04:45:55;;;;;;;7.90;3.80;;;;;;;21.19;nan;96425.81;3528924;40;20474;-73
2021/06/18 04:48:23;;;;;;;7.20;3.53;;;;;;;21.26;nan;96421.41;3531185;40;21266;-73
2021/06/18 04:50:51;;;;;;;5.93;3.17;;;;;;;21.38;nan;96426.34;3527770;40;20846;-73
2021/06/18 04:53:19;;;;;;;9.77;3.87;;;;;;;21.36;nan;96426.50;3532015;40;20586;-73
2021/06/18 04:55:49;;;;;;;6.53;3.50;;;;;;;21.42;nan;96430.31;3528047;40;20948;-73
2021/06/18 04:58:18;;;;;;;6.47;3.00;;;;;;;21.50;nan;96432.94;3529255;40;20731;-74
2021/06/18 05:00:46;;;;;;;10.50;3.93;;;;;;;21.60;nan;96425.56;3522983;40;20662;-73
2021/06/18 05:03:14;;;;;;;6.50;3.33;;;;;;;21.79;nan;96434.88;3531035;40;20746;-74
2021/06/18 05:05:42;;;;;;;7.23;3.07;;;;;;;21.91;nan;96428.13;3524600;40;20472;-75
2021/06/18 05:08:10;;;;;;;5.53;3.20;;;;;;;21.87;nan;96436.63;3521324;40;20603;-74
2021/06/18 05:10:39;;;;;;;6.13;3.23;;;;;;;21.90;nan;96429.09;3532154;40;20462;-74
2021/06/18 05:13:07;;;;;;;4.57;2.70;;;;;;;22.00;nan;96433.38;3532018;40;20819;-74
2021/06/18 05:15:36;;;;;;;5.87;3.17;;;;;;;22.11;nan;96432.94;3530780;40;20468;-74
2021/06/18 05:18:06;;;;;;;7.97;2.40;;;;;;;22.31;nan;96428.75;3532158;40;20461;-74
2021/06/18 05:20:34;;;;;;;11.80;3.00;;;;;;;22.38;nan;96428.00;3529926;40;20477;-74
2021/06/18 05:23:02;;;;;;;9.97;3.00;;;;;;;22.23;nan;96406.66;3535541;40;20527;-74
2021/06/18 05:25:30;;;;;;;8.40;3.10;;;;;;;22.38;nan;96425.34;3530230;40;20573;-74
2021/06/18 05:27:58;;;;;;;3.97;3.10;;;;;;;22.44;nan;96429.94;3531718;40;20786;-74
2021/06/18 05:30:26;;;;;;;6.53;3.27;;;;;;;22.60;nan;96432.44;3530716;40;20476;-74
2021/06/18 05:32:56;;;;;;;7.60;3.10;;;;;;;22.85;nan;96426.78;3514753;40;20481;-75
2021/06/18 05:35:24;;;;;;;7.40;3.13;;;;;;;22.91;nan;96426.00;3532193;40;20877;-74
2021/06/18 05:37:52;;;;;;;7.50;3.20;;;;;;;22.94;nan;96424.84;3529558;40;20445;-75
2021/06/18 05:40:20;;;;;;;5.90;3.30;;;;;;;22.98;nan;96423.44;3532153;40;20498;-74
2021/06/18 05:42:50;;;;;;;6.70;2.70;;;;;;;23.10;nan;96422.78;3531092;40;20719;-74
2021/06/18 05:45:18;;;;;;;9.53;2.77;;;;;;;23.18;nan;96421.84;3522268;40;20538;-74
2021/06/18 05:47:45;;;;;;;8.07;2.40;;;;;;;23.27;nan;96422.56;3532081;40;20836;-74
2021/06/18 05:50:15;;;;;;;7.30;2.60;;;;;;;23.35;nan;96426.97;3531225;40;20781;-75
2021/06/18 05:52:43;;;;;;;4.60;2.20;;;;;;;23.58;nan;96424.09;3526821;40;20493;-74
2021/06/18 05:55:11;;;;;;;4.30;2.60;;;;;;;23.60;nan;96432.72;3534922;40;20776;-74
2021/06/18 05:57:41;;;;;;;5.40;2.80;;;;;;;23.77;nan;96436.81;3517628;40;20867;-74
2021/06/18 06:00:10;;;;;;;4.30;2.33;;;;;;;23.84;nan;96431.56;3512060;40;20474;-74
2021/06/18 06:02:38;;;;;;;9.93;2.83;;;;;;;23.93;nan;96432.22;3510248;40;20725;-74
2021/06/18 06:05:07;;;;;;;3.00;2.33;;;;;;;24.03;nan;96425.53;3509543;40;20471;-75
2021/06/18 06:07:36;;;;;;;5.97;2.77;;;;;;;23.94;nan;96416.00;3512837;40;20464;-75
2021/06/18 06:10:05;;;;;;;15.13;6.00;;;;;;;24.15;nan;96415.13;3513695;40;21006;-75
2021/06/18 06:12:33;;;;;;;3.80;2.60;;;;;;;24.26;nan;96422.59;3504621;40;20567;-74
2021/06/18 06:15:01;;;;;;;4.37;2.63;;;;;;;24.56;nan;96430.44;3508751;40;20456;-74
2021/06/18 06:17:29;;;;;;;9.63;3.07;;;;;;;25.04;nan;96426.94;3514453;40;20822;-75
2021/06/18 06:19:57;;;;;;;8.17;3.40;;;;;;;25.05;nan;96424.06;3509996;40;20862;-74
2021/06/18 06:22:25;;;;;;;7.40;2.57;;;;;;;24.98;nan;96425.88;3509468;40;20483;-75
2021/06/18 06:24:54;;;;;;;9.53;2.30;;;;;;;25.14;nan;96426.56;3507391;40;20475;-74
2021/06/18 06:27:22;;;;;;;9.83;2.87;;;;;;;25.32;nan;96423.34;3507339;40;20698;-75
2021/06/18 06:29:50;;;;;;;7.70;2.93;;;;;;;25.27;nan;96423.97;3512207;40;20454;-74
2021/06/18 06:32:18;;;;;;;110.73;7.30;;;;;;;25.79;nan;96417.00;3510771;40;20463;-74
2021/06/18 06:34:46;;;;;;;4.63;2.23;;;;;;;25.73;nan;96425.88;3512871;40;20872;-75
2021/06/18 06:37:16;;;;;;;12.30;2.60;;;;;;;26.04;nan;96427.16;3511465;40;20448;-74
2021/06/18 06:39:44;;;;;;;6.00;2.90;;;;;;;26.20;nan;96421.34;3510334;40;20561;-74
2021/06/18 06:42:13;;;;;;;4.97;3.00;;;;;;;25.99;nan;96397.44;3512329;40;20491;-74
2021/06/18 06:44:42;;;;;;;7.50;2.90;;;;;;;26.44;nan;96421.72;3513638;40;20569;-74
2021/06/18 06:47:10;;;;;;;7.13;2.83;;;;;;;26.59;nan;96419.66;3508992;40;20840;-75
2021/06/18 06:49:38;;;;;;;5.83;3.00;;;;;;;26.69;nan;96429.13;3509027;40;20529;-74
2021/06/18 06:52:06;;;;;;;4.30;2.60;;;;;;;26.87;nan;96425.78;3510258;40;20554;-74
2021/06/18 06:54:34;;;;;;;27.27;3.23;;;;;;;26.90;nan;96428.84;3510810;40;20829;-75
2021/06/18 06:57:02;;;;;;;12.60;2.97;;;;;;;26.94;nan;96431.94;3510564;40;20550;-75
2021/06/18 06:59:32;;;;;;;10.57;2.93;;;;;;;26.64;nan;96432.47;3519836;40;20869;-74
2021/06/18 07:02:00;;;;;;;9.27;7.10;;;;;;;27.07;nan;96420.31;3529662;40;20442;-75
2021/06/18 07:04:28;;;;;;;16.90;6.77;;;;;;;27.49;nan;96428.81;3530615;40;20861;-74
2021/06/18 07:06:56;;;;;;;6.10;3.00;;;;;;;27.56;nan;96425.03;3531392;40;20469;-74
2021/06/18 07:09:24;;;;;;;13.70;3.60;;;;;;;27.38;nan;96423.09;3528670;40;20477;-75
2021/06/18 07:11:52;;;;;;;4.20;2.60;;;;;;;27.85;nan;96421.94;3528991;40;21143;-74
2021/06/18 07:14:20;;;;;;;8.80;3.20;;;;;;;27.83;nan;96427.50;3520213;40;20746;-75
2021/06/18 07:16:49;;;;;;;10.63;3.90;;;;;;;28.10;nan;96420.09;3528776;40;20855;-74
2021/06/18 07:19:17;;;;;;;7.23;3.10;;;;;;;27.39;nan;96430.09;3520348;40;21180;-75
2021/06/18 07:21:47;;;;;;;7.80;3.40;;;;;;;27.72;nan;96426.38;3526994;40;20485;-74
2021/06/18 07:24:15;;;;;;;10.20;3.30;;;;;;;28.69;nan;96436.72;3531513;40;20864;-75
2021/06/18 07:26:43;;;;;;;11.27;3.37;;;;;;;28.69;nan;96438.59;3528901;40;21099;-74
2021/06/18 07:29:11;;;;;;;11.00;3.27;;;;;;;28.08;nan;96443.69;3531175;40;20473;-75
2021/06/18 07:31:39;;;;;;;5.27;3.03;;;;;;;27.46;nan;96438.09;3528205;40;20476;-75
2021/06/18 07:34:09;;;;;;;7.70;3.40;;;;;;;26.91;nan;96440.41;3526641;40;20537;-75
2021/06/18 07:36:37;;;;;;;15.23;5.00;;;;;;;27.59;nan;96434.53;3529501;40;20457;-74
2021/06/18 07:39:06;;;;;;;16.30;4.80;;;;;;;28.20;nan;96430.34;3530225;40;20786;-74
2021/06/18 07:41:35;;;;;;;7.83;3.40;;;;;;;28.44;nan;96434.03;3524542;40;20535;-73
2021/06/18 07:44:03;;;;;;;8.43;2.80;;;;;;;28.28;nan;96440.00;3528761;40;20487;-74
2021/06/18 07:46:31;;;;;;;8.07;3.50;;;;;;;28.41;nan;96437.19;3533826;40;20554;-74
2021/06/18 07:48:59;;;;;;;5.20;3.07;;;;;;;28.69;nan;96441.28;3518841;40;20938;-74
2021/06/18 07:51:28;;;;;;;6.43;3.33;;;;;;;28.40;nan;96440.91;3536114;40;20580;-74
2021/06/18 07:53:56;;;;;;;5.83;3.50;;;;;;;28.32;nan;96433.13;3530589;40;20539;-74
2021/06/18 07:56:29;;;;;;;8.87;3.37;;;;;;;28.31;nan;96435.00;3533866;40;20484;-75
2021/06/18 07:58:57;;;;;;;7.90;3.63;;;;;;;29.50;nan;96442.81;3529652;40;20881;-74
2021/06/18 08:01:25;;;;;;;8.50;4.27;;;;;;;29.62;nan;96431.22;3530861;40;20721;-74
2021/06/18 08:03:53;;;;;;;5.33;4.20;;;;;;;29.44;nan;96432.94;3529364;40;20493;-74
2021/06/18 08:06:21;;;;;;;63.73;47.50;;;;;;;29.41;nan;96424.47;3530981;40;20449;-74
2021/06/18 08:08:51;;;;;;;16.30;8.60;;;;;;;29.65;nan;96411.88;3533881;40;20578;-74
2021/06/18 08:11:19;;;;;;;12.07;4.00;;;;;;;30.40;nan;96432.09;3534324;40;20499;-74
2021/06/18 08:13:46;;;;;;;6.17;4.10;;;;;;;30.46;nan;96426.56;3534087;40;20522;-74
2021/06/18 08:16:14;;;;;;;5.60;3.83;;;;;;;30.71;nan;96425.47;3532549;40;20726;-75
2021/06/18 08:18:42;;;;;;;5.03;3.57;;;;;;;30.63;nan;96420.44;3531545;40;20799;-74
2021/06/18 08:21:10;;;;;;;9.73;3.47;;;;;;;31.18;nan;96421.88;3531659;40;20442;-74
2021/06/18 08:23:39;;;;;;;7.97;3.40;;;;;;;30.59;nan;96424.69;3529457;40;20517;-75
2021/06/18 08:26:08;;;;;;;3.83;2.90;;;;;;;29.56;nan;96414.09;3518532;40;20715;-74
2021/06/18 08:28:37;;;;;;;17.03;3.90;;;;;;;30.44;nan;96417.88;3531155;40;20806;-74
2021/06/18 08:31:06;;;;;;;7.23;3.37;;;;;;;31.17;nan;96423.75;3530379;40;20469;-74
2021/06/18 08:33:36;;;;;;;56.87;6.57;;;;;;;30.35;nan;96427.41;3530243;40;20437;-74
2021/06/18 08:36:06;;;;;;;18.13;4.30;;;;;;;29.64;nan;96421.00;3524887;40;20468;-74
2021/06/18 08:38:35;;;;;;;18.47;4.87;;;;;;;30.03;nan;96419.59;3527615;40;20469;-73
2021/06/18 08:41:05;;;;;;;24.80;6.03;;;;;;;29.74;nan;96418.63;3519247;40;20465;-74
2021/06/18 08:43:36;;;;;;;13.87;4.77;;;;;;;31.00;nan;96425.56;3532544;40;20429;-74
2021/06/18 08:46:05;;;;;;;16.67;5.90;;;;;;;30.43;nan;96424.34;3533133;40;20882;-74
2021/06/18 08:48:34;;;;;;;19.57;3.90;;;;;;;30.29;nan;96421.03;3528079;40;20467;-74
2021/06/18 08:51:04;;;;;;;18.33;4.83;;;;;;;30.99;nan;96413.09;3529723;40;20465;-74
2021/06/18 08:53:35;;;;;;;8.53;4.13;;;;;;;29.92;nan;96420.41;3531450;40;20849;-74
2021/06/18 08:56:05;;;;;;;21.67;4.90;;;;;;;30.96;nan;96419.81;3532192;40;21102;-74
2021/06/18 08:58:36;;;;;;;37.83;5.37;;;;;;;30.67;nan;96427.00;3529792;40;20491;-74
2021/06/18 09:01:04;;;;;;;21.67;4.87;;;;;;;31.94;nan;96419.72;3531162;40;20442;-74
2021/06/18 09:03:37;;;;;;;10.03;3.80;;;;;;;32.38;nan;96422.59;3530691;40;20477;-77
2021/06/18 09:06:24;;;;;;;13.50;3.60;;;;;;;33.35;nan;96430.41;3532393;40;20469;-75
2021/06/18 09:09:31;;;;;;;8.53;3.90;;;;;;;32.92;nan;96429.34;3539992;40;20481;-74
2021/06/18 09:12:02;;;;;;;24.83;5.30;;;;;;;31.98;nan;96418.19;3545666;40;20524;-74
2021/06/18 09:14:33;;;;;;;34.10;6.87;;;;;;;31.33;nan;96420.28;3542484;40;20583;-74
2021/06/18 09:17:17;;;;;;;14.07;4.67;;;;;;;31.87;nan;96413.66;3544493;40;20920;-74
2021/06/18 09:19:49;;;;;;;19.73;5.13;;;;;;;32.88;nan;96413.56;3530866;40;20445;-75
2021/06/18 09:22:20;;;;;;;20.47;4.70;;;;;;;33.40;nan;96415.00;3525184;40;20973;-75
2021/06/18 09:24:56;;;;;;;8.83;3.97;;;;;;;30.56;nan;96425.97;3529223;40;20479;-74
2021/06/18 09:27:31;;;;;;;14.50;4.50;;;;;;;31.13;nan;96409.88;3532283;40;20464;-74
2021/06/18 09:30:17;;;;;;;10.10;4.10;;;;;;;32.73;nan;96421.50;3531827;40;20783;-74
2021/06/18 09:32:58;;;;;;;10.60;4.20;;;;;;;33.55;nan;96417.03;3532558;40;20838;-74
2021/06/18 09:35:26;;;;;;;14.63;4.80;;;;;;;33.85;nan;96411.13;3530467;40;20707;-75
2021/06/18 09:37:55;;;;;;;19.10;4.53;;;;;;;31.67;nan;96412.25;3531713;40;20697;-75
2021/06/18 09:40:24;;;;;;;6.33;3.30;;;;;;;31.35;nan;96409.22;3531446;40;20470;-74
2021/06/18 09:42:59;;;;;;;6.90;4.20;;;;;;;32.25;nan;96404.00;3528912;40;20449;-74
2021/06/18 09:45:30;;;;;;;6.60;3.70;;;;;;;33.16;nan;96410.94;3530876;40;20675;-74
2021/06/18 09:48:08;;;;;;;10.20;3.70;;;;;;;33.29;nan;96411.34;3521622;40;20867;-74
2021/06/18 09:50:39;;;;;;;7.73;3.67;;;;;;;34.29;nan;96407.41;3531287;40;20507;-74
2021/06/18 09:53:15;;;;;;;19.23;3.90;;;;;;;34.54;nan;96403.19;3529263;40;20543;-74
2021/06/18 09:55:44;;;;;;;7.17;3.30;;;;;;;33.54;nan;96410.00;3530767;40;20961;-74
2021/06/18 09:58:13;;;;;;;6.03;4.30;;;;;;;33.57;nan;96403.22;3532175;40;20518;-75
2021/06/18 10:00:42;;;;;;;24.00;4.93;;;;;;;33.43;nan;96403.63;3519799;40;20754;-75
2021/06/18 10:03:11;;;;;;;6.40;3.80;;;;;;;33.21;nan;96400.16;3529699;40;20473;-74
2021/06/18 10:05:42;;;;;;;5.57;3.97;;;;;;;33.12;nan;96405.19;3530179;40;20586;-74
2021/06/18 10:08:11;;;;;;;10.63;4.67;;;;;;;32.99;nan;96402.84;3520308;40;20563;-75
2021/06/18 10:10:40;;;;;;;43.60;28.17;;;;;;;33.29;nan;96405.94;3529195;40;21118;-74
2021/06/18 10:13:08;;;;;;;8.20;3.80;;;;;;;32.77;nan;96403.66;3528165;40;20690;-75
2021/06/18 10:15:38;;;;;;;15.10;3.63;;;;;;;32.88;nan;96397.28;3530436;40;20449;-74
2021/06/18 10:18:12;;;;;;;13.63;3.77;;;;;;;34.26;nan;96388.91;3531134;40;20769;-75
2021/06/18 10:20:40;;;;;;;10.07;3.57;;;;;;;34.45;nan;96395.53;3515991;40;20479;-75
2021/06/18 10:23:17;;;;;;;17.60;3.80;;;;;;;34.07;nan;96389.28;3529269;40;20478;-74
2021/06/18 10:25:51;;;;;;;8.03;3.40;;;;;;;35.14;nan;96382.00;3529443;40;20830;-74
2021/06/18 10:28:21;;;;;;;4.20;3.30;;;;;;;35.61;nan;96381.84;3529840;40;20472;-75
2021/06/18 10:30:51;;;;;;;5.80;3.73;;;;;;;35.61;nan;96381.84;3534426;40;20928;-75
2021/06/18 10:33:37;;;;;;;7.80;3.90;;;;;;;36.09;nan;96383.50;3527093;40;21125;-75
2021/06/18 10:36:28;;;;;;;8.00;3.30;;;;;;;33.79;nan;96384.16;3532709;40;20489;-74
2021/06/18 10:39:13;;;;;;;10.67;3.50;;;;;;;33.79;nan;96384.97;3524935;40;20775;-74
2021/06/18 10:41:46;;;;;;;8.60;3.23;;;;;;;32.80;nan;96389.63;3530201;40;20449;-75
2021/06/18 10:44:50;;;;;;;5.47;3.37;;;;;;;32.75;nan;96383.31;3534328;40;21200;-74
2021/06/18 10:47:43;;;;;;;12.10;3.73;;;;;;;33.31;nan;96380.47;3528825;40;20473;-74
2021/06/18 10:50:14;;;;;;;7.13;2.80;;;;;;;33.23;nan;96377.13;3514700;40;20846;-74
2021/06/18 10:52:44;;;;;;;5.47;3.90;;;;;;;35.34;nan;96367.66;3531026;40;20556;-73
2021/06/18 10:55:14;;;;;;;6.37;3.13;;;;;;;36.63;nan;96369.25;3531461;40;20477;-74
2021/06/18 10:57:53;;;;;;;6.97;3.40;;;;;;;33.85;nan;96377.69;3533466;40;20880;-74
2021/06/18 11:00:24;;;;;;;5.40;3.43;;;;;;;32.43;nan;96378.53;3528166;40;20538;-74
2021/06/18 11:02:52;;;;;;;3.90;3.50;;;;;;;33.01;nan;96377.13;3528273;40;20710;-74
2021/06/18 11:05:36;;;;;;;3.67;3.10;;;;;;;33.26;nan;96370.34;3529646;40;20576;-74
2021/06/18 11:08:29;;;;;;;6.27;3.47;;;;;;;33.57;nan;96363.31;3531071;40;20761;-74
2021/06/18 11:11:22;;;;;;;6.43;3.20;;;;;;;34.35;nan;96365.59;3529552;40;21128;-75
2021/06/18 11:14:02;;;;;;;8.00;3.67;;;;;;;33.65;nan;96368.31;3528799;40;20461;-74
2021/06/18 11:16:38;;;;;;;5.53;3.03;;;;;;;32.95;nan;96353.75;3528415;40;20705;-77
2021/06/18 11:19:21;;;;;;;4.20;3.10;;;;;;;33.40;nan;96368.88;3528763;40;20714;-75
2021/06/18 11:21:51;;;;;;;5.47;3.00;;;;;;;34.80;nan;96361.50;3532539;40;20773;-75
2021/06/18 11:24:33;;;;;;;11.63;3.50;;;;;;;35.72;nan;96354.66;3530027;40;20798;-75
2021/06/18 11:27:25;;;;;;;11.87;3.37;;;;;;;35.69;nan;96363.38;3532020;40;20744;-75
2021/06/18 11:30:27;;;;;;;14.00;3.80;;;;;;;33.33;nan;96367.44;3529291;40;20456;-74
2021/06/18 11:32:56;;;;;;;11.87;3.40;;;;;;;35.04;nan;96359.13;3523126;40;20550;-74
2021/06/18 11:35:41;;;;;;;29.53;4.00;;;;;;;36.41;nan;96361.41;3532799;40;20920;-74
2021/06/18 11:38:17;;;;;;;22.50;3.90;;;;;;;37.52;nan;96352.19;3531798;40;20450;-75
2021/06/18 11:40:55;;;;;;;13.63;3.23;;;;;;;37.28;nan;96358.34;3531100;40;20453;-74
2021/06/18 11:43:26;;;;;;;25.07;4.97;;;;;;;34.75;nan;96358.75;3535961;40;20492;-74
2021/06/18 11:45:55;;;;;;;12.40;3.43;;;;;;;37.21;nan;96357.88;3521300;40;20539;-74
2021/06/18 11:48:24;;;;;;;19.03;3.90;;;;;;;37.88;nan;96352.75;3530403;40;20483;-74
2021/06/18 11:50:53;;;;;;;9.13;2.97;;;;;;;39.19;nan;96354.66;3527269;40;20734;-75
2021/06/18 11:53:22;;;;;;;23.03;3.50;;;;;;;39.03;nan;96345.81;3529614;40;20765;-75
2021/06/18 11:55:57;;;;;;;62.37;6.90;;;;;;;39.37;nan;96345.63;3530799;40;20780;-75
2021/06/18 11:58:30;;;;;;;10.20;3.60;;;;;;;35.58;nan;96360.63;3528444;40;20521;-74
2021/06/18 12:00:59;;;;;;;15.23;3.87;;;;;;;35.18;nan;96359.44;3532269;40;20466;-74
2021/06/18 12:03:32;;;;;;;3.70;3.03;;;;;;;34.23;nan;96363.06;3531911;40;20473;-74
2021/06/18 12:06:15;;;;;;;7.77;3.67;;;;;;;34.56;nan;96355.66;3529406;40;20493;-74